Main page
METAR-TAF:

METAR-TAF

Airports :

Ramon Airport

Eilat, Israel

latitude: 29-43-25N, longitude: 35-00-41E, elevation: 88 m

Current weather observation

The report was made 30 minutes ago, at 06:50 UTC
Wind 15 kt from the North/Northeast
Temperature 27°C
Humidity 42%
Pressure 1013 hPa
Visibility 10 km or more
no clouds below 1500 m and no cumulonimbus

METAR: LLER 260650Z 02015KT CAVOK 27/13 Q1013

Time: 10:20 (07:20 UTC)

Forecast

The report was made 2 hours and 18 minutes ago, at 05:02 UTC
Forecast valid from 26 at 06 UTC to 27 at 06 UTC
Wind 15 kt from the North
Visibility 10 km or more
no clouds below 1500 m and no cumulonimbus
Probability 40% :
Temporary
from 26 at 10 UTC to 26 at 16 UTC
Wind 20 kt from the North/Northeast with gusts up to 30 kt
Becoming
from 26 at 18 UTC to 26 at 20 UTC
Wind 10 kt from the North

TAF: LLER 260502Z 2606/2706 01015KT CAVOK PROB40 TEMPO 2610/2616 02020G30KT BECMG 2618/2620 35010KT TX35/2612Z TN21/2704Z

Weather observations and forecasts of more than 4000 airports (METAR and TAF reports).

The available stations are represented by yellow and red dots on the map.

Hover mouse over dot to see the name of the station.

Then click to see weather observations and forecasts.

To change the map : click on the green buttons with a black cross to zoom in, on the green button with a dash to zoom out, or on the green arrows for adjacent maps.


METAR-TAF: